sensor_id;sensor_type;location;lat;lon;timestamp;pressure;altitude;pressure_sealevel;temperature;humidity
40245;BME280;25963;42.694;23.600;2023-08-06T00:00:38;94093.28;;;23.82;81.59
40245;BME280;25963;42.694;23.600;2023-08-06T00:03:04;94111.56;;;23.68;83.37
40245;BME280;25963;42.694;23.600;2023-08-06T00:05:30;94120.97;;;23.53;83.68
40245;BME280;25963;42.694;23.600;2023-08-06T00:07:55;94116.56;;;23.49;85.78
40245;BME280;25963;42.694;23.600;2023-08-06T00:10:20;94131.72;;;23.15;85.67
40245;BME280;25963;42.694;23.600;2023-08-06T00:12:46;94134.22;;;23.29;84.98
40245;BME280;25963;42.694;23.600;2023-08-06T00:15:12;94131.91;;;23.48;86.54
40245;BME280;25963;42.694;23.600;2023-08-06T00:17:37;94130.63;;;23.54;85.45
40245;BME280;25963;42.694;23.600;2023-08-06T00:20:04;94115.00;;;23.39;87.77
40245;BME280;25963;42.694;23.600;2023-08-06T00:22:31;94116.41;;;23.45;87.07
40245;BME280;25963;42.694;23.600;2023-08-06T00:24:57;94111.09;;;23.36;87.52
40245;BME280;25963;42.694;23.600;2023-08-06T00:27:23;94080.94;;;23.13;87.58
40245;BME280;25963;42.694;23.600;2023-08-06T00:29:48;94019.94;;;22.88;89.42
40245;BME280;25963;42.694;23.600;2023-08-06T00:32:14;94049.72;;;23.21;91.06
40245;BME280;25963;42.694;23.600;2023-08-06T00:34:39;94064.78;;;23.22;90.50
40245;BME280;25963;42.694;23.600;2023-08-06T00:37:05;94067.25;;;22.97;91.27
40245;BME280;25963;42.694;23.600;2023-08-06T00:39:30;94060.41;;;23.00;93.07
40245;BME280;25963;42.694;23.600;2023-08-06T00:41:55;94054.06;;;23.13;90.40
40245;BME280;25963;42.694;23.600;2023-08-06T00:44:21;94072.25;;;23.46;90.00
40245;BME280;25963;42.694;23.600;2023-08-06T00:46:47;94060.28;;;23.35;90.59
40245;BME280;25963;42.694;23.600;2023-08-06T00:49:12;94049.47;;;23.14;90.33
40245;BME280;25963;42.694;23.600;2023-08-06T00:51:38;94055.63;;;23.14;90.70
40245;BME280;25963;42.694;23.600;2023-08-06T00:54:03;94034.00;;;23.02;91.08
40245;BME280;25963;42.694;23.600;2023-08-06T00:56:29;94040.94;;;23.03;92.23
40245;BME280;25963;42.694;23.600;2023-08-06T00:58:54;94032.88;;;23.03;91.91
40245;BME280;25963;42.694;23.600;2023-08-06T01:01:20;94032.75;;;22.91;93.63
40245;BME280;25963;42.694;23.600;2023-08-06T01:03:46;94021.16;;;23.08;91.34
40245;BME280;25963;42.694;23.600;2023-08-06T01:06:11;94012.66;;;22.97;91.82
40245;BME280;25963;42.694;23.600;2023-08-06T01:14:18;94005.16;;;23.41;89.68
40245;BME280;25963;42.694;23.600;2023-08-06T01:16:48;94003.06;;;23.46;89.66
40245;BME280;25963;42.694;23.600;2023-08-06T01:19:18;94000.81;;;23.28;89.24
40245;BME280;25963;42.694;23.600;2023-08-06T01:21:43;93992.41;;;23.29;90.48
40245;BME280;25963;42.694;23.600;2023-08-06T01:24:09;93984.03;;;23.01;90.45
40245;BME280;25963;42.694;23.600;2023-08-06T01:29:11;93984.72;;;23.19;91.30
40245;BME280;25963;42.694;23.600;2023-08-06T01:31:40;93975.63;;;23.32;90.60
40245;BME280;25963;42.694;23.600;2023-08-06T01:34:10;93973.78;;;22.86;94.28
40245;BME280;25963;42.694;23.600;2023-08-06T01:36:38;93977.47;;;23.40;89.83
40245;BME280;25963;42.694;23.600;2023-08-06T01:39:05;93976.56;;;23.36;91.30
40245;BME280;25963;42.694;23.600;2023-08-06T01:41:30;93978.13;;;23.37;91.74
40245;BME280;25963;42.694;23.600;2023-08-06T01:43:56;93990.88;;;23.49;90.02
40245;BME280;25963;42.694;23.600;2023-08-06T01:46:21;94001.63;;;23.49;89.87
40245;BME280;25963;42.694;23.600;2023-08-06T01:48:47;93988.84;;;23.16;91.89
40245;BME280;25963;42.694;23.600;2023-08-06T01:51:12;93982.38;;;23.09;91.78
40245;BME280;25963;42.694;23.600;2023-08-06T01:53:37;93980.31;;;23.14;91.44
40245;BME280;25963;42.694;23.600;2023-08-06T01:56:03;93980.81;;;23.08;92.69
40245;BME280;25963;42.694;23.600;2023-08-06T01:58:28;93979.31;;;23.28;91.95
40245;BME280;25963;42.694;23.600;2023-08-06T02:00:54;93969.19;;;23.24;93.16
40245;BME280;25963;42.694;23.600;2023-08-06T02:03:19;93976.44;;;23.24;93.06
40245;BME280;25963;42.694;23.600;2023-08-06T02:05:45;93974.28;;;23.17;92.73
40245;BME280;25963;42.694;23.600;2023-08-06T02:08:11;93960.66;;;23.22;92.33
40245;BME280;25963;42.694;23.600;2023-08-06T02:10:36;93944.44;;;23.10;93.12
40245;BME280;25963;42.694;23.600;2023-08-06T02:13:01;93947.91;;;23.11;93.18
40245;BME280;25963;42.694;23.600;2023-08-06T02:15:27;93968.72;;;23.22;92.90
40245;BME280;25963;42.694;23.600;2023-08-06T02:17:52;93983.88;;;23.27;93.05
40245;BME280;25963;42.694;23.600;2023-08-06T02:20:18;93955.78;;;23.16;92.11
40245;BME280;25963;42.694;23.600;2023-08-06T02:22:43;93951.28;;;23.29;92.71
40245;BME280;25963;42.694;23.600;2023-08-06T02:25:09;93969.22;;;23.45;90.64
40245;BME280;25963;42.694;23.600;2023-08-06T02:27:34;93970.59;;;23.52;91.37
40245;BME280;25963;42.694;23.600;2023-08-06T02:29:59;93956.84;;;23.23;92.52
40245;BME280;25963;42.694;23.600;2023-08-06T02:32:25;93977.91;;;23.21;92.71
40245;BME280;25963;42.694;23.600;2023-08-06T02:34:50;94004.22;;;23.16;93.27
40245;BME280;25963;42.694;23.600;2023-08-06T02:37:16;94003.03;;;22.96;95.67
40245;BME280;25963;42.694;23.600;2023-08-06T02:39:41;93990.28;;;23.14;93.05
40245;BME280;25963;42.694;23.600;2023-08-06T02:42:07;94011.75;;;23.22;94.34
40245;BME280;25963;42.694;23.600;2023-08-06T02:44:33;94003.09;;;23.17;94.61
40245;BME280;25963;42.694;23.600;2023-08-06T02:46:59;94015.06;;;22.81;96.05
40245;BME280;25963;42.694;23.600;2023-08-06T02:49:25;94013.06;;;22.69;95.66
40245;BME280;25963;42.694;23.600;2023-08-06T02:51:50;94016.31;;;22.92;94.86
40245;BME280;25963;42.694;23.600;2023-08-06T02:54:17;94026.72;;;23.02;93.45
40245;BME280;25963;42.694;23.600;2023-08-06T02:56:43;94023.31;;;22.76;95.17
40245;BME280;25963;42.694;23.600;2023-08-06T02:59:10;94035.47;;;22.73;96.41
40245;BME280;25963;42.694;23.600;2023-08-06T03:01:35;94030.09;;;22.82;96.53
40245;BME280;25963;42.694;23.600;2023-08-06T03:04:01;94017.75;;;22.81;95.81
40245;BME280;25963;42.694;23.600;2023-08-06T03:06:27;94004.31;;;22.81;96.32
40245;BME280;25963;42.694;23.600;2023-08-06T03:08:52;94001.19;;;22.70;96.64
40245;BME280;25963;42.694;23.600;2023-08-06T03:11:18;93988.78;;;22.48;97.93
40245;BME280;25963;42.694;23.600;2023-08-06T03:13:43;93985.66;;;22.38;98.33
40245;BME280;25963;42.694;23.600;2023-08-06T03:16:09;93982.53;;;22.74;97.62
40245;BME280;25963;42.694;23.600;2023-08-06T03:18:34;93977.13;;;22.83;97.00
40245;BME280;25963;42.694;23.600;2023-08-06T03:21:00;93967.78;;;22.42;97.70
40245;BME280;25963;42.694;23.600;2023-08-06T03:23:25;93971.69;;;22.53;98.87
40245;BME280;25963;42.694;23.600;2023-08-06T03:25:51;93966.09;;;22.67;97.44
40245;BME280;25963;42.694;23.600;2023-08-06T03:28:16;93958.25;;;22.53;97.94
40245;BME280;25963;42.694;23.600;2023-08-06T03:30:42;93974.22;;;22.49;100.00
40245;BME280;25963;42.694;23.600;2023-08-06T03:33:07;93901.81;;;21.97;100.00
40245;BME280;25963;42.694;23.600;2023-08-06T03:35:33;93841.88;;;21.24;100.00
40245;BME280;25963;42.694;23.600;2023-08-06T03:37:58;93859.13;;;21.40;100.00
40245;BME280;25963;42.694;23.600;2023-08-06T03:40:24;93867.06;;;20.62;100.00
40245;BME280;25963;42.694;23.600;2023-08-06T03:42:49;93949.78;;;21.29;100.00
40245;BME280;25963;42.694;23.600;2023-08-06T03:45:14;94021.34;;;21.03;100.00
40245;BME280;25963;42.694;23.600;2023-08-06T03:47:40;94040.06;;;20.85;100.00
40245;BME280;25963;42.694;23.600;2023-08-06T04:06:10;93947.41;;;20.53;100.00
40245;BME280;25963;42.694;23.600;2023-08-06T04:08:36;94012.34;;;20.98;100.00
40245;BME280;25963;42.694;23.600;2023-08-06T04:11:01;93986.94;;;20.96;100.00
40245;BME280;25963;42.694;23.600;2023-08-06T04:13:27;94010.97;;;21.10;100.00
40245;BME280;25963;42.694;23.600;2023-08-06T04:15:52;94036.41;;;21.21;100.00
40245;BME280;25963;42.694;23.600;2023-08-06T04:18:18;94042.38;;;21.18;100.00
40245;BME280;25963;42.694;23.600;2023-08-06T04:20:47;94035.09;;;21.10;100.00
40245;BME280;25963;42.694;23.600;2023-08-06T04:23:14;93984.41;;;20.91;100.00
40245;BME280;25963;42.694;23.600;2023-08-06T04:25:40;93968.81;;;20.93;100.00
40245;BME280;25963;42.694;23.600;2023-08-06T04:28:06;94030.06;;;21.17;100.00
40245;BME280;25963;42.694;23.600;2023-08-06T04:30:31;93994.75;;;21.24;100.00
40245;BME280;25963;42.694;23.600;2023-08-06T04:32:57;93969.75;;;20.88;100.00
40245;BME280;25963;42.694;23.600;2023-08-06T04:35:23;93999.75;;;21.08;100.00
40245;BME280;25963;42.694;23.600;2023-08-06T04:37:48;93998.50;;;21.14;100.00
40245;BME280;25963;42.694;23.600;2023-08-06T04:40:14;93964.13;;;21.16;100.00
40245;BME280;25963;42.694;23.600;2023-08-06T04:42:39;93940.06;;;21.42;100.00
40245;BME280;25963;42.694;23.600;2023-08-06T04:45:05;93952.47;;;21.20;100.00
40245;BME280;25963;42.694;23.600;2023-08-06T04:47:31;93930.03;;;21.08;100.00
40245;BME280;25963;42.694;23.600;2023-08-06T04:49:56;93932.44;;;21.27;100.00
40245;BME280;25963;42.694;23.600;2023-08-06T04:52:22;93969.97;;;21.27;100.00
40245;BME280;25963;42.694;23.600;2023-08-06T04:54:47;93995.63;;;21.02;100.00
40245;BME280;25963;42.694;23.600;2023-08-06T04:57:13;94000.47;;;20.82;100.00
40245;BME280;25963;42.694;23.600;2023-08-06T04:59:39;93984.88;;;20.93;100.00
40245;BME280;25963;42.694;23.600;2023-08-06T05:02:04;93979.75;;;21.14;100.00
40245;BME280;25963;42.694;23.600;2023-08-06T05:04:30;93976.59;;;21.29;100.00
40245;BME280;25963;42.694;23.600;2023-08-06T05:06:55;93982.38;;;21.45;100.00
40245;BME280;25963;42.694;23.600;2023-08-06T05:09:21;93957.66;;;21.17;100.00
40245;BME280;25963;42.694;23.600;2023-08-06T05:11:47;93982.81;;;21.38;100.00
40245;BME280;25963;42.694;23.600;2023-08-06T05:14:12;93974.63;;;21.61;100.00
40245;BME280;25963;42.694;23.600;2023-08-06T05:16:38;93970.38;;;21.60;100.00
40245;BME280;25963;42.694;23.600;2023-08-06T05:19:04;93945.59;;;21.54;100.00
40245;BME280;25963;42.694;23.600;2023-08-06T05:21:29;93974.94;;;21.59;100.00
40245;BME280;25963;42.694;23.600;2023-08-06T05:23:54;93946.53;;;21.84;100.00
40245;BME280;25963;42.694;23.600;2023-08-06T05:26:20;93946.03;;;21.91;100.00
40245;BME280;25963;42.694;23.600;2023-08-06T05:28:45;93932.34;;;21.75;100.00
40245;BME280;25963;42.694;23.600;2023-08-06T05:31:11;93934.66;;;22.03;100.00
40245;BME280;25963;42.694;23.600;2023-08-06T05:33:37;93943.03;;;22.19;100.00
40245;BME280;25963;42.694;23.600;2023-08-06T05:36:02;93956.88;;;22.38;100.00
40245;BME280;25963;42.694;23.600;2023-08-06T05:38:29;93958.56;;;22.51;100.00
40245;BME280;25963;42.694;23.600;2023-08-06T05:40:55;93935.41;;;22.38;100.00
40245;BME280;25963;42.694;23.600;2023-08-06T05:43:21;93923.13;;;22.20;100.00
40245;BME280;25963;42.694;23.600;2023-08-06T05:45:49;93959.25;;;22.31;100.00
40245;BME280;25963;42.694;23.600;2023-08-06T05:48:14;93954.38;;;22.24;100.00
40245;BME280;25963;42.694;23.600;2023-08-06T05:50:40;93947.72;;;22.39;100.00
40245;BME280;25963;42.694;23.600;2023-08-06T05:53:05;93959.59;;;22.03;100.00
40245;BME280;25963;42.694;23.600;2023-08-06T05:55:31;93964.84;;;22.17;100.00
40245;BME280;25963;42.694;23.600;2023-08-06T05:57:58;93951.41;;;22.00;100.00
40245;BME280;25963;42.694;23.600;2023-08-06T06:00:23;93980.16;;;22.17;100.00
40245;BME280;25963;42.694;23.600;2023-08-06T06:02:49;93978.56;;;22.07;100.00
40245;BME280;25963;42.694;23.600;2023-08-06T06:05:14;93976.84;;;22.02;100.00
40245;BME280;25963;42.694;23.600;2023-08-06T06:07:40;94003.66;;;22.28;100.00
40245;BME280;25963;42.694;23.600;2023-08-06T06:10:05;94013.47;;;22.33;100.00
40245;BME280;25963;42.694;23.600;2023-08-06T06:12:31;94001.94;;;22.32;100.00
40245;BME280;25963;42.694;23.600;2023-08-06T06:14:57;94026.41;;;22.22;100.00
40245;BME280;25963;42.694;23.600;2023-08-06T06:17:22;94019.31;;;22.35;100.00
40245;BME280;25963;42.694;23.600;2023-08-06T06:19:48;94025.81;;;22.17;100.00
40245;BME280;25963;42.694;23.600;2023-08-06T06:22:13;94021.28;;;22.64;100.00
40245;BME280;25963;42.694;23.600;2023-08-06T06:24:39;94012.56;;;22.76;100.00
40245;BME280;25963;42.694;23.600;2023-08-06T06:27:04;94019.03;;;22.84;100.00
40245;BME280;25963;42.694;23.600;2023-08-06T06:29:30;94027.06;;;23.01;100.00
40245;BME280;25963;42.694;23.600;2023-08-06T06:31:55;94023.72;;;23.04;100.00
40245;BME280;25963;42.694;23.600;2023-08-06T06:34:21;94012.09;;;23.12;100.00
40245;BME280;25963;42.694;23.600;2023-08-06T06:36:47;94005.50;;;23.10;100.00
40245;BME280;25963;42.694;23.600;2023-08-06T06:39:12;94021.41;;;23.23;100.00
40245;BME280;25963;42.694;23.600;2023-08-06T06:41:38;94027.75;;;23.49;100.00
40245;BME280;25963;42.694;23.600;2023-08-06T06:44:04;94021.66;;;23.39;100.00
40245;BME280;25963;42.694;23.600;2023-08-06T06:46:29;94025.97;;;24.03;100.00
40245;BME280;25963;42.694;23.600;2023-08-06T06:48:55;94033.94;;;24.54;100.00
40245;BME280;25963;42.694;23.600;2023-08-06T06:51:20;94026.66;;;25.24;100.00
40245;BME280;25963;42.694;23.600;2023-08-06T06:53:45;94029.47;;;25.53;100.00
40245;BME280;25963;42.694;23.600;2023-08-06T06:56:11;94035.63;;;26.30;100.00
40245;BME280;25963;42.694;23.600;2023-08-06T06:58:36;94054.56;;;26.74;100.00
40245;BME280;25963;42.694;23.600;2023-08-06T07:01:03;94053.88;;;26.77;100.00
40245;BME280;25963;42.694;23.600;2023-08-06T07:03:29;94049.84;;;27.15;100.00
40245;BME280;25963;42.694;23.600;2023-08-06T07:05:57;94049.75;;;26.96;100.00
40245;BME280;25963;42.694;23.600;2023-08-06T07:08:24;94066.63;;;26.77;100.00
40245;BME280;25963;42.694;23.600;2023-08-06T07:10:49;94059.69;;;26.35;100.00
40245;BME280;25963;42.694;23.600;2023-08-06T07:13:15;94056.50;;;26.17;100.00
40245;BME280;25963;42.694;23.600;2023-08-06T07:15:41;94052.38;;;25.95;100.00
40245;BME280;25963;42.694;23.600;2023-08-06T07:18:07;94051.75;;;25.49;100.00
40245;BME280;25963;42.694;23.600;2023-08-06T07:20:32;94054.41;;;25.74;100.00
40245;BME280;25963;42.694;23.600;2023-08-06T07:22:59;94056.63;;;25.96;100.00
40245;BME280;25963;42.694;23.600;2023-08-06T07:25:25;94048.34;;;25.77;100.00
40245;BME280;25963;42.694;23.600;2023-08-06T07:27:51;94045.53;;;25.73;100.00
40245;BME280;25963;42.694;23.600;2023-08-06T07:30:16;94058.56;;;25.96;100.00
40245;BME280;25963;42.694;23.600;2023-08-06T07:32:42;94053.41;;;25.91;100.00
40245;BME280;25963;42.694;23.600;2023-08-06T07:35:07;94038.69;;;26.16;100.00
40245;BME280;25963;42.694;23.600;2023-08-06T07:37:38;94024.06;;;26.17;100.00
40245;BME280;25963;42.694;23.600;2023-08-06T07:40:03;94029.22;;;26.23;100.00
40245;BME280;25963;42.694;23.600;2023-08-06T07:42:29;94014.13;;;26.22;97.75
40245;BME280;25963;42.694;23.600;2023-08-06T07:44:56;94011.56;;;26.13;100.00
40245;BME280;25963;42.694;23.600;2023-08-06T07:47:22;94006.53;;;25.99;100.00
40245;BME280;25963;42.694;23.600;2023-08-06T07:49:47;94027.72;;;25.72;100.00
40245;BME280;25963;42.694;23.600;2023-08-06T07:52:13;94033.03;;;25.69;97.40
40245;BME280;25963;42.694;23.600;2023-08-06T07:54:38;94025.50;;;26.27;100.00
40245;BME280;25963;42.694;23.600;2023-08-06T07:57:04;93995.31;;;26.25;96.68
40245;BME280;25963;42.694;23.600;2023-08-06T07:59:30;94015.69;;;26.79;96.28
40245;BME280;25963;42.694;23.600;2023-08-06T08:01:55;94024.53;;;27.07;98.31
40245;BME280;25963;42.694;23.600;2023-08-06T08:04:21;94032.47;;;27.16;97.62
40245;BME280;25963;42.694;23.600;2023-08-06T08:06:47;94036.38;;;27.03;92.22
40245;BME280;25963;42.694;23.600;2023-08-06T08:09:13;94039.94;;;27.07;89.19
40245;BME280;25963;42.694;23.600;2023-08-06T08:11:40;94053.22;;;26.80;81.89
40245;BME280;25963;42.694;23.600;2023-08-06T08:14:05;94033.84;;;27.10;92.31
40245;BME280;25963;42.694;23.600;2023-08-06T08:16:31;94045.09;;;27.12;83.73
40245;BME280;25963;42.694;23.600;2023-08-06T08:18:57;94046.69;;;27.13;80.78
40245;BME280;25963;42.694;23.600;2023-08-06T08:21:22;94041.00;;;26.86;80.07
40245;BME280;25963;42.694;23.600;2023-08-06T08:23:52;94028.97;;;27.00;75.70
40245;BME280;25963;42.694;23.600;2023-08-06T08:26:18;94054.75;;;27.25;84.72
40245;BME280;25963;42.694;23.600;2023-08-06T08:28:43;94064.91;;;26.84;72.73
40245;BME280;25963;42.694;23.600;2023-08-06T08:31:10;94065.75;;;26.73;74.98
40245;BME280;25963;42.694;23.600;2023-08-06T08:33:37;94060.00;;;26.18;72.59
40245;BME280;25963;42.694;23.600;2023-08-06T08:36:03;94066.69;;;26.36;71.32
40245;BME280;25963;42.694;23.600;2023-08-06T08:38:29;94057.50;;;26.53;73.90
40245;BME280;25963;42.694;23.600;2023-08-06T08:40:54;94058.91;;;27.07;77.02
40245;BME280;25963;42.694;23.600;2023-08-06T08:43:23;94058.06;;;27.19;67.03
40245;BME280;25963;42.694;23.600;2023-08-06T08:45:53;94048.84;;;26.92;68.61
40245;BME280;25963;42.694;23.600;2023-08-06T08:48:24;94053.19;;;27.40;66.89
40245;BME280;25963;42.694;23.600;2023-08-06T08:50:52;94047.28;;;26.91;70.82
40245;BME280;25963;42.694;23.600;2023-08-06T08:53:17;94020.44;;;27.29;71.97
40245;BME280;25963;42.694;23.600;2023-08-06T08:55:46;94028.31;;;27.70;65.41
40245;BME280;25963;42.694;23.600;2023-08-06T08:58:11;94020.63;;;27.72;65.55
40245;BME280;25963;42.694;23.600;2023-08-06T09:00:37;94018.63;;;28.23;64.58
40245;BME280;25963;42.694;23.600;2023-08-06T09:03:05;94014.91;;;27.93;67.06
40245;BME280;25963;42.694;23.600;2023-08-06T09:05:31;94004.66;;;28.41;63.56
40245;BME280;25963;42.694;23.600;2023-08-06T09:08:03;94004.72;;;28.44;65.00
40245;BME280;25963;42.694;23.600;2023-08-06T09:10:28;93999.38;;;28.48;65.70
40245;BME280;25963;42.694;23.600;2023-08-06T09:12:56;93993.63;;;28.73;63.03
40245;BME280;25963;42.694;23.600;2023-08-06T09:15:25;93996.22;;;28.27;58.76
40245;BME280;25963;42.694;23.600;2023-08-06T09:17:52;93980.41;;;28.48;61.59
40245;BME280;25963;42.694;23.600;2023-08-06T09:20:17;93976.13;;;28.70;61.89
40245;BME280;25963;42.694;23.600;2023-08-06T09:22:43;93982.41;;;28.74;61.87
40245;BME280;25963;42.694;23.600;2023-08-06T09:25:10;93986.94;;;28.66;57.14
40245;BME280;25963;42.694;23.600;2023-08-06T09:27:39;93981.53;;;29.12;59.15
40245;BME280;25963;42.694;23.600;2023-08-06T09:30:06;93957.25;;;28.35;60.65
40245;BME280;25963;42.694;23.600;2023-08-06T09:32:48;93954.13;;;28.13;60.40
40245;BME280;25963;42.694;23.600;2023-08-06T09:35:17;93983.84;;;28.91;61.36
40245;BME280;25963;42.694;23.600;2023-08-06T09:37:43;93978.00;;;28.89;60.55
40245;BME280;25963;42.694;23.600;2023-08-06T09:40:28;93977.88;;;29.28;62.17
40245;BME280;25963;42.694;23.600;2023-08-06T09:42:54;93968.16;;;29.27;57.02
40245;BME280;25963;42.694;23.600;2023-08-06T09:45:19;93972.91;;;29.07;55.49
40245;BME280;25963;42.694;23.600;2023-08-06T09:47:47;93968.94;;;28.58;56.95
40245;BME280;25963;42.694;23.600;2023-08-06T09:50:20;93974.09;;;29.09;57.75
40245;BME280;25963;42.694;23.600;2023-08-06T09:52:48;93976.56;;;28.95;56.93
40245;BME280;25963;42.694;23.600;2023-08-06T09:55:16;93979.63;;;28.94;56.69
40245;BME280;25963;42.694;23.600;2023-08-06T09:57:42;93986.16;;;29.12;53.13
40245;BME280;25963;42.694;23.600;2023-08-06T10:00:11;93979.06;;;29.04;53.77
40245;BME280;25963;42.694;23.600;2023-08-06T10:02:40;93977.13;;;29.04;49.34
40245;BME280;25963;42.694;23.600;2023-08-06T10:05:08;93997.78;;;28.66;50.94
40245;BME280;25963;42.694;23.600;2023-08-06T10:07:35;93987.13;;;29.00;53.36
40245;BME280;25963;42.694;23.600;2023-08-06T10:10:01;93984.38;;;29.20;51.85
40245;BME280;25963;42.694;23.600;2023-08-06T10:12:29;94006.97;;;29.04;52.47
40245;BME280;25963;42.694;23.600;2023-08-06T10:14:57;94002.59;;;29.46;50.81
40245;BME280;25963;42.694;23.600;2023-08-06T10:17:25;94004.44;;;29.38;52.04
40245;BME280;25963;42.694;23.600;2023-08-06T10:19:51;93982.78;;;29.19;54.36
40245;BME280;25963;42.694;23.600;2023-08-06T10:22:20;93989.69;;;29.39;53.06
40245;BME280;25963;42.694;23.600;2023-08-06T10:24:48;94005.59;;;29.64;56.83
40245;BME280;25963;42.694;23.600;2023-08-06T10:27:22;93998.91;;;29.84;50.45
40245;BME280;25963;42.694;23.600;2023-08-06T10:29:48;93969.78;;;30.18;48.69
40245;BME280;25963;42.694;23.600;2023-08-06T10:32:15;93991.34;;;30.68;49.79
40245;BME280;25963;42.694;23.600;2023-08-06T10:34:59;93994.00;;;29.97;46.74
40245;BME280;25963;42.694;23.600;2023-08-06T10:37:36;93991.72;;;30.29;48.85
40245;BME280;25963;42.694;23.600;2023-08-06T10:40:02;93993.03;;;29.55;47.89
40245;BME280;25963;42.694;23.600;2023-08-06T10:42:29;93987.88;;;29.47;46.43
40245;BME280;25963;42.694;23.600;2023-08-06T10:45:19;94004.03;;;28.71;47.67
40245;BME280;25963;42.694;23.600;2023-08-06T10:47:45;93994.25;;;28.43;45.21
40245;BME280;25963;42.694;23.600;2023-08-06T10:50:15;94013.91;;;28.40;46.53
40245;BME280;25963;42.694;23.600;2023-08-06T10:52:43;94020.13;;;28.40;50.71
40245;BME280;25963;42.694;23.600;2023-08-06T10:55:09;94005.34;;;28.38;50.44
40245;BME280;25963;42.694;23.600;2023-08-06T10:57:35;94015.56;;;28.64;47.75
40245;BME280;25963;42.694;23.600;2023-08-06T11:00:00;94022.47;;;28.61;47.00
40245;BME280;25963;42.694;23.600;2023-08-06T11:02:26;94017.84;;;28.62;49.50
40245;BME280;25963;42.694;23.600;2023-08-06T11:04:51;94025.47;;;28.56;48.58
40245;BME280;25963;42.694;23.600;2023-08-06T11:07:17;94032.47;;;28.38;48.16
40245;BME280;25963;42.694;23.600;2023-08-06T11:09:42;94030.00;;;27.94;49.47
40245;BME280;25963;42.694;23.600;2023-08-06T11:12:11;94024.09;;;27.72;51.75
40245;BME280;25963;42.694;23.600;2023-08-06T11:14:37;94028.41;;;27.58;53.44
40245;BME280;25963;42.694;23.600;2023-08-06T11:17:05;94033.50;;;27.59;52.08
40245;BME280;25963;42.694;23.600;2023-08-06T11:19:30;94033.13;;;27.61;52.27
40245;BME280;25963;42.694;23.600;2023-08-06T11:21:56;94030.72;;;27.40;53.99
40245;BME280;25963;42.694;23.600;2023-08-06T11:24:24;94030.03;;;27.11;54.22
40245;BME280;25963;42.694;23.600;2023-08-06T11:26:49;94027.59;;;27.38;54.45
40245;BME280;25963;42.694;23.600;2023-08-06T11:29:15;94023.22;;;27.17;56.31
40245;BME280;25963;42.694;23.600;2023-08-06T11:31:41;94041.38;;;27.33;53.90
40245;BME280;25963;42.694;23.600;2023-08-06T11:34:06;94038.88;;;27.75;54.29
40245;BME280;25963;42.694;23.600;2023-08-06T11:36:33;94018.72;;;28.27;52.65
40245;BME280;25963;42.694;23.600;2023-08-06T11:38:59;94023.78;;;28.90;53.07
40245;BME280;25963;42.694;23.600;2023-08-06T11:41:24;94020.19;;;29.29;49.25
40245;BME280;25963;42.694;23.600;2023-08-06T11:43:50;94031.31;;;29.70;49.91
40245;BME280;25963;42.694;23.600;2023-08-06T11:46:16;94036.19;;;29.61;43.57
40245;BME280;25963;42.694;23.600;2023-08-06T11:48:54;94030.69;;;29.80;44.18
40245;BME280;25963;42.694;23.600;2023-08-06T11:51:24;94042.72;;;29.56;43.85
40245;BME280;25963;42.694;23.600;2023-08-06T11:53:59;94033.59;;;29.18;43.13
40245;BME280;25963;42.694;23.600;2023-08-06T11:56:25;94024.19;;;29.12;41.99
40245;BME280;25963;42.694;23.600;2023-08-06T11:58:52;94020.00;;;29.41;41.90
40245;BME280;25963;42.694;23.600;2023-08-06T12:01:18;94020.50;;;29.24;46.72
40245;BME280;25963;42.694;23.600;2023-08-06T12:03:43;94019.09;;;29.83;48.79
40245;BME280;25963;42.694;23.600;2023-08-06T12:06:09;94020.69;;;29.88;43.79
40245;BME280;25963;42.694;23.600;2023-08-06T12:08:34;94003.03;;;29.48;42.80
40245;BME280;25963;42.694;23.600;2023-08-06T12:11:00;94005.47;;;29.56;43.16
40245;BME280;25963;42.694;23.600;2023-08-06T12:13:25;94030.72;;;29.34;44.32
40245;BME280;25963;42.694;23.600;2023-08-06T12:15:51;94026.06;;;29.57;44.62
40245;BME280;25963;42.694;23.600;2023-08-06T12:18:20;94027.72;;;29.39;44.09
40245;BME280;25963;42.694;23.600;2023-08-06T12:20:45;94031.16;;;29.36;44.55
40245;BME280;25963;42.694;23.600;2023-08-06T12:23:11;94034.59;;;29.33;44.47
40245;BME280;25963;42.694;23.600;2023-08-06T12:25:40;94025.78;;;29.17;45.68
40245;BME280;25963;42.694;23.600;2023-08-06T12:28:06;94018.75;;;28.70;48.18
40245;BME280;25963;42.694;23.600;2023-08-06T12:30:32;94024.75;;;28.79;46.69
40245;BME280;25963;42.694;23.600;2023-08-06T12:32:58;94021.06;;;28.90;45.88
40245;BME280;25963;42.694;23.600;2023-08-06T12:35:23;94020.69;;;28.92;46.81
40245;BME280;25963;42.694;23.600;2023-08-06T12:37:50;94021.16;;;29.17;45.34
40245;BME280;25963;42.694;23.600;2023-08-06T12:40:19;94006.13;;;29.23;43.91
40245;BME280;25963;42.694;23.600;2023-08-06T12:42:45;94010.81;;;30.06;45.16
40245;BME280;25963;42.694;23.600;2023-08-06T12:45:11;94007.88;;;30.48;44.36
40245;BME280;25963;42.694;23.600;2023-08-06T12:47:36;94006.38;;;30.88;43.74
40245;BME280;25963;42.694;23.600;2023-08-06T12:50:02;94020.81;;;30.25;41.16
40245;BME280;25963;42.694;23.600;2023-08-06T12:52:27;94010.72;;;29.69;41.71
40245;BME280;25963;42.694;23.600;2023-08-06T12:54:52;93999.19;;;29.52;42.57
40245;BME280;25963;42.694;23.600;2023-08-06T12:57:18;94000.41;;;29.05;42.72
40245;BME280;25963;42.694;23.600;2023-08-06T12:59:43;94022.19;;;29.09;43.21
40245;BME280;25963;42.694;23.600;2023-08-06T13:02:09;94011.53;;;29.00;42.90
40245;BME280;25963;42.694;23.600;2023-08-06T13:04:34;94019.88;;;28.88;45.31
40245;BME280;25963;42.694;23.600;2023-08-06T13:06:59;94007.97;;;28.73;44.81